createdAt,value
2023-07-18T00:00:19.542Z,10.77
2023-07-18T00:02:47.297Z,10.70
2023-07-18T00:05:14.710Z,10.57
2023-07-18T00:07:43.174Z,10.93
2023-07-18T00:10:11.864Z,11.90
2023-07-18T00:12:40.937Z,10.52
2023-07-18T00:15:11.162Z,13.70
2023-07-18T00:17:39.630Z,11.00
2023-07-18T00:20:14.038Z,11.82
2023-07-18T00:22:49.808Z,11.65
2023-07-18T00:25:21.454Z,11.70
2023-07-18T00:27:52.980Z,11.65
2023-07-18T00:30:20.471Z,11.57
2023-07-18T00:32:47.477Z,12.38
2023-07-18T00:35:15.952Z,13.23
2023-07-18T00:37:44.404Z,12.32
2023-07-18T00:40:14.214Z,12.95
2023-07-18T00:42:43.219Z,13.38
2023-07-18T00:45:12.515Z,13.75
2023-07-18T00:47:42.730Z,14.07
2023-07-18T00:50:12.358Z,13.45
2023-07-18T00:52:42.946Z,13.68
2023-07-18T00:55:12.253Z,12.93
2023-07-18T00:57:41.552Z,12.30
2023-07-18T01:00:12.699Z,12.68
2023-07-18T01:02:42.680Z,11.90
2023-07-18T01:05:11.385Z,11.90
2023-07-18T01:07:41.784Z,12.00
2023-07-18T01:10:16.940Z,11.98
2023-07-18T01:12:45.517Z,13.20
2023-07-18T01:15:14.557Z,11.80
2023-07-18T01:17:46.969Z,13.50
2023-07-18T01:20:21.664Z,12.65
2023-07-18T01:22:55.289Z,12.48
2023-07-18T01:27:52.415Z,11.38
2023-07-18T01:30:24.919Z,13.77
2023-07-18T01:32:52.383Z,13.55
2023-07-18T01:35:22.636Z,12.73
2023-07-18T01:37:49.994Z,12.70
2023-07-18T01:40:22.103Z,12.48
2023-07-18T01:42:54.236Z,11.60
2023-07-18T01:45:23.704Z,12.25
2023-07-18T01:47:53.016Z,11.40
2023-07-18T01:50:21.024Z,13.13
2023-07-18T01:52:49.435Z,13.43
2023-07-18T01:55:17.419Z,14.55
2023-07-18T01:57:50.002Z,16.25
2023-07-18T02:00:23.233Z,14.77
2023-07-18T02:02:55.133Z,14.95
2023-07-18T02:05:25.307Z,14.48
2023-07-18T02:07:53.472Z,14.35
2023-07-18T02:10:22.430Z,15.25
2023-07-18T02:12:51.008Z,16.80
2023-07-18T02:15:18.561Z,17.33
2023-07-18T02:17:46.470Z,16.80
2023-07-18T02:20:15.743Z,17.00
2023-07-18T02:22:45.351Z,18.35
2023-07-18T02:25:13.699Z,18.83
2023-07-18T02:27:42.530Z,18.52
2023-07-18T02:30:12.135Z,18.35
2023-07-18T02:32:44.441Z,17.85
2023-07-18T02:35:16.802Z,19.20
2023-07-18T02:37:44.041Z,18.45
2023-07-18T02:40:13.151Z,20.58
2023-07-18T02:42:40.681Z,18.98
2023-07-18T02:45:11.434Z,20.23
2023-07-18T02:47:39.049Z,19.27
2023-07-18T02:50:07.010Z,18.45
2023-07-18T02:52:34.401Z,17.45
2023-07-18T02:55:01.912Z,17.58
2023-07-18T02:57:29.249Z,18.52
2023-07-18T02:59:59.434Z,16.75
2023-07-18T03:02:27.450Z,17.02
2023-07-18T03:04:54.680Z,15.93
2023-07-18T03:07:22.303Z,14.75
2023-07-18T03:09:50.003Z,15.65
2023-07-18T03:12:18.211Z,15.20
2023-07-18T03:14:45.317Z,13.32
2023-07-18T03:17:12.676Z,12.82
2023-07-18T03:19:39.976Z,12.20
2023-07-18T03:22:07.497Z,11.65
2023-07-18T03:24:37.652Z,11.70
2023-07-18T03:27:07.213Z,11.10
2023-07-18T03:29:34.450Z,10.20
2023-07-18T03:32:02.410Z,10.85
2023-07-18T03:34:30.378Z,11.00
2023-07-18T03:36:57.783Z,9.52
2023-07-18T03:39:25.366Z,9.50
2023-07-18T03:41:52.560Z,9.77
2023-07-18T03:44:19.902Z,8.93
2023-07-18T03:46:47.266Z,8.75
2023-07-18T03:49:14.718Z,8.35
2023-07-18T03:51:41.942Z,8.07
2023-07-18T03:54:11.342Z,8.15
2023-07-18T03:56:39.050Z,8.10
2023-07-18T03:59:06.515Z,7.53
2023-07-18T04:01:33.961Z,7.47
2023-07-18T04:04:01.364Z,6.93
2023-07-18T04:06:29.615Z,8.10
2023-07-18T04:08:57.144Z,6.88
2023-07-18T04:11:24.406Z,7.85
2023-07-18T04:13:51.966Z,7.47
2023-07-18T04:16:19.868Z,7.72
2023-07-18T04:18:48.002Z,6.85
2023-07-18T04:21:14.709Z,6.05
2023-07-18T04:23:41.970Z,8.45
2023-07-18T04:26:10.707Z,7.45
2023-07-18T04:28:47.585Z,7.03
2023-07-18T04:31:17.074Z,6.45
2023-07-18T04:33:46.753Z,5.88
2023-07-18T04:36:13.976Z,5.32
2023-07-18T04:38:41.280Z,5.97
2023-07-18T04:41:08.126Z,6.13
2023-07-18T04:43:35.066Z,5.40
2023-07-18T04:46:02.344Z,5.93
2023-07-18T04:48:29.559Z,6.47
2023-07-18T04:51:01.451Z,5.85
2023-07-18T04:53:29.670Z,5.03
2023-07-18T04:55:58.051Z,6.07
2023-07-18T04:58:29.557Z,5.80
2023-07-18T05:00:58.587Z,6.25
2023-07-18T05:03:26.590Z,4.97
2023-07-18T05:05:54.695Z,4.93
2023-07-18T05:08:22.163Z,5.57
2023-07-18T05:10:49.938Z,5.00
2023-07-18T05:13:17.305Z,4.55
2023-07-18T05:15:45.012Z,4.15
2023-07-18T05:18:12.444Z,4.03
2023-07-18T05:20:39.904Z,4.18
2023-07-18T05:23:07.797Z,4.10
2023-07-18T05:25:35.885Z,3.80
2023-07-18T05:28:04.841Z,3.50
2023-07-18T05:30:32.258Z,3.08
2023-07-18T05:32:59.539Z,2.80
2023-07-18T05:35:26.835Z,2.75
2023-07-18T05:37:54.054Z,3.10
2023-07-18T05:40:22.693Z,3.25
2023-07-18T05:42:50.400Z,2.85
2023-07-18T05:45:17.820Z,2.90
2023-07-18T05:47:45.383Z,2.60
2023-07-18T05:50:13.467Z,2.55
2023-07-18T05:52:40.872Z,2.20
2023-07-18T05:55:09.461Z,2.70
2023-07-18T05:57:37.165Z,2.33
2023-07-18T06:00:07.683Z,3.13
2023-07-18T06:02:36.293Z,2.80
2023-07-18T06:05:03.957Z,2.60
2023-07-18T06:07:31.266Z,2.38
2023-07-18T06:09:58.505Z,2.72
2023-07-18T06:12:25.804Z,2.60
2023-07-18T06:14:54.573Z,2.97
2023-07-18T06:17:21.997Z,2.63
2023-07-18T06:19:49.250Z,2.72
2023-07-18T06:22:16.563Z,2.63
2023-07-18T06:24:43.829Z,2.63
2023-07-18T06:27:11.222Z,2.60
2023-07-18T06:29:39.252Z,2.60
2023-07-18T06:32:07.430Z,2.60
2023-07-18T06:34:35.048Z,2.30
2023-07-18T06:37:04.083Z,3.00
2023-07-18T06:39:31.590Z,2.33
2023-07-18T06:41:59.416Z,4.97
2023-07-18T06:44:26.768Z,3.00
2023-07-18T06:46:54.675Z,2.67
2023-07-18T06:49:22.636Z,2.50
2023-07-18T06:51:51.348Z,3.03
2023-07-18T06:54:20.393Z,2.65
2023-07-18T06:56:47.658Z,3.00
2023-07-18T06:59:15.408Z,2.60
2023-07-18T07:01:43.802Z,2.42
2023-07-18T07:04:12.392Z,3.03
2023-07-18T07:06:43.551Z,2.47
2023-07-18T07:09:11.769Z,6.85
2023-07-18T07:11:38.921Z,3.10
2023-07-18T07:14:08.833Z,3.63
2023-07-18T07:16:38.842Z,2.95
2023-07-18T07:19:07.180Z,2.55
2023-07-18T07:21:34.385Z,2.55
2023-07-18T07:24:02.273Z,2.72
2023-07-18T07:26:29.773Z,2.50
2023-07-18T07:28:56.893Z,5.00
2023-07-18T07:31:25.000Z,3.03
2023-07-18T07:33:52.770Z,3.03
2023-07-18T07:36:20.273Z,2.80
2023-07-18T07:38:47.831Z,3.75
2023-07-18T07:41:15.261Z,2.60
2023-07-18T07:43:42.654Z,6.43
2023-07-18T07:46:09.926Z,4.55
2023-07-18T07:48:37.152Z,3.45
2023-07-18T07:51:05.513Z,2.80
2023-07-18T07:53:33.054Z,2.90
2023-07-18T07:56:00.402Z,2.35
2023-07-18T07:58:27.800Z,3.05
2023-07-18T08:00:54.996Z,3.30
2023-07-18T08:03:22.350Z,3.75
2023-07-18T08:05:49.671Z,2.63
2023-07-18T08:08:18.535Z,4.32
2023-07-18T08:10:45.928Z,2.67
2023-07-18T08:13:15.981Z,2.80
2023-07-18T08:15:43.367Z,2.50
2023-07-18T08:18:10.793Z,2.83
2023-07-18T08:20:38.656Z,2.70
2023-07-18T08:23:06.087Z,2.72
2023-07-18T08:25:33.328Z,2.42
2023-07-18T08:28:00.751Z,3.00
2023-07-18T08:30:28.027Z,1.75
2023-07-18T08:32:55.414Z,2.55
2023-07-18T08:35:23.047Z,2.50
2023-07-18T08:37:50.433Z,1.70
2023-07-18T08:40:17.948Z,1.90
2023-07-18T08:42:45.266Z,2.00
2023-07-18T08:45:16.193Z,2.75
2023-07-18T08:47:46.916Z,2.15
2023-07-18T08:50:14.349Z,2.08
2023-07-18T08:52:41.893Z,2.22
2023-07-18T08:55:10.535Z,2.42
2023-07-18T08:57:41.033Z,2.13
2023-07-18T09:00:09.447Z,2.05
2023-07-18T09:02:39.053Z,2.55
2023-07-18T09:05:07.057Z,2.22
2023-07-18T09:07:38.048Z,2.20
2023-07-18T09:10:05.867Z,3.15
2023-07-18T09:12:37.289Z,2.40
2023-07-18T09:15:04.809Z,1.90
2023-07-18T09:17:33.983Z,2.13
2023-07-18T09:20:09.718Z,2.28
2023-07-18T09:22:38.030Z,6.03
2023-07-18T09:25:05.824Z,2.60
2023-07-18T09:27:33.668Z,2.47
2023-07-18T09:30:01.023Z,2.25
2023-07-18T09:32:28.359Z,2.42
2023-07-18T09:34:57.667Z,1.95
2023-07-18T09:37:25.268Z,2.00
2023-07-18T09:39:53.296Z,2.28
2023-07-18T09:42:21.389Z,1.73
2023-07-18T09:44:51.966Z,1.95
2023-07-18T09:47:20.327Z,1.73
2023-07-18T09:49:47.844Z,2.03
2023-07-18T09:52:17.643Z,1.70
2023-07-18T09:54:45.667Z,1.63
2023-07-18T09:57:14.229Z,1.65
2023-07-18T09:59:41.401Z,2.35
2023-07-18T10:02:12.497Z,1.92
2023-07-18T10:04:40.333Z,2.45
2023-07-18T10:07:10.665Z,19.58
2023-07-18T10:09:38.910Z,4.20
2023-07-18T10:12:10.950Z,2.35
2023-07-18T10:14:44.056Z,2.28
2023-07-18T10:17:25.548Z,1.95
2023-07-18T10:19:53.095Z,1.90
2023-07-18T10:22:28.822Z,1.52
2023-07-18T10:25:07.269Z,1.80
2023-07-18T10:27:39.740Z,1.52
2023-07-18T10:30:09.626Z,1.83
2023-07-18T10:32:39.899Z,1.73
2023-07-18T10:35:09.705Z,2.25
2023-07-18T10:37:38.487Z,1.88
2023-07-18T10:40:07.215Z,2.00
2023-07-18T10:42:36.781Z,2.03
2023-07-18T10:45:08.736Z,1.95
2023-07-18T10:47:37.879Z,1.80
2023-07-18T10:50:08.257Z,2.47
2023-07-18T10:52:36.503Z,6.47
2023-07-18T10:55:08.516Z,5.32
2023-07-18T10:57:39.164Z,5.57
2023-07-18T11:00:08.212Z,5.45
2023-07-18T11:02:43.706Z,2.17
2023-07-18T11:05:13.195Z,1.85
2023-07-18T11:07:50.760Z,2.22
2023-07-18T11:10:17.983Z,2.15
2023-07-18T11:12:45.332Z,1.80
2023-07-18T11:15:13.876Z,1.58
2023-07-18T11:17:43.599Z,1.55
2023-07-18T11:20:13.555Z,1.55
2023-07-18T11:22:42.223Z,1.65
2023-07-18T11:25:11.261Z,1.38
2023-07-18T11:27:38.677Z,1.20
2023-07-18T11:30:10.777Z,1.30
2023-07-18T11:32:49.191Z,1.58
2023-07-18T11:35:24.518Z,1.60
2023-07-18T11:37:53.553Z,1.98
2023-07-18T11:40:27.301Z,1.42
2023-07-18T11:42:57.712Z,1.20
2023-07-18T11:45:27.170Z,1.20
2023-07-18T11:47:56.943Z,18.17
2023-07-18T11:50:29.457Z,1.92
2023-07-18T11:55:24.749Z,1.85
2023-07-18T11:57:51.563Z,1.17
2023-07-18T12:00:19.424Z,1.13
2023-07-18T12:02:47.619Z,1.35
2023-07-18T12:05:16.101Z,1.10
2023-07-18T12:07:47.257Z,0.95
2023-07-18T12:10:16.382Z,1.35
2023-07-18T12:12:45.318Z,1.40
2023-07-18T12:15:14.283Z,1.27
2023-07-18T12:17:42.142Z,2.78
2023-07-18T12:20:10.750Z,4.95
2023-07-18T12:22:41.017Z,2.75
2023-07-18T12:25:08.888Z,1.50
2023-07-18T12:27:36.415Z,1.25
2023-07-18T12:30:03.823Z,1.30
2023-07-18T12:32:32.578Z,1.10
2023-07-18T12:34:59.901Z,1.40
2023-07-18T12:37:27.578Z,1.55
2023-07-18T12:39:55.099Z,1.17
2023-07-18T12:42:22.040Z,1.63
2023-07-18T12:44:48.925Z,1.13
2023-07-18T12:47:15.655Z,1.85
2023-07-18T12:52:14.462Z,1.30
2023-07-18T12:54:42.071Z,2.15
2023-07-18T12:57:09.103Z,1.20
2023-07-18T12:59:36.643Z,1.70
2023-07-18T13:02:05.296Z,1.30
2023-07-18T13:04:32.528Z,1.15
2023-07-18T13:06:59.870Z,1.20
2023-07-18T13:09:27.191Z,1.20
2023-07-18T13:11:54.088Z,1.30
2023-07-18T13:14:22.089Z,1.30
2023-07-18T13:16:49.541Z,2.40
2023-07-18T13:19:17.374Z,1.38
2023-07-18T13:21:45.889Z,1.25
2023-07-18T13:24:13.197Z,1.30
2023-07-18T13:26:40.976Z,0.95
2023-07-18T13:29:08.539Z,2.08
2023-07-18T13:31:36.300Z,7.13
2023-07-18T13:34:04.702Z,2.00
2023-07-18T13:36:33.177Z,1.50
2023-07-18T13:39:00.687Z,0.98
2023-07-18T13:41:28.058Z,1.17
2023-07-18T13:43:55.425Z,1.25
2023-07-18T13:46:22.888Z,1.23
2023-07-18T13:48:50.640Z,1.77
2023-07-18T13:51:17.882Z,1.65
2023-07-18T13:53:45.392Z,1.67
2023-07-18T13:56:12.836Z,1.17
2023-07-18T13:58:40.284Z,1.05
2023-07-18T14:01:07.745Z,1.13
2023-07-18T14:03:37.026Z,1.30
2023-07-18T14:06:05.439Z,5.65
2023-07-18T14:08:32.929Z,1.10
2023-07-18T14:11:00.438Z,1.20
2023-07-18T14:13:27.614Z,1.05
2023-07-18T14:15:56.119Z,2.03
2023-07-18T14:18:23.531Z,1.20
2023-07-18T14:20:50.956Z,1.30
2023-07-18T14:23:18.636Z,1.30
2023-07-18T14:25:49.133Z,0.90
2023-07-18T14:28:17.910Z,1.20
2023-07-18T14:30:45.526Z,0.80
2023-07-18T14:33:15.480Z,0.98
2023-07-18T14:35:43.145Z,2.10
2023-07-18T14:38:10.224Z,2.20
2023-07-18T14:40:38.261Z,1.35
2023-07-18T14:43:10.475Z,1.10
2023-07-18T14:45:38.788Z,1.13
2023-07-18T14:48:07.830Z,2.90
2023-07-18T14:50:35.435Z,5.07
2023-07-18T14:53:02.862Z,2.10
2023-07-18T14:55:34.384Z,1.70
2023-07-18T14:58:02.085Z,1.13
2023-07-18T15:00:29.825Z,1.05
2023-07-18T15:02:57.365Z,1.25
2023-07-18T15:05:24.908Z,0.90
2023-07-18T15:07:52.124Z,1.00
2023-07-18T15:10:19.395Z,1.30
2023-07-18T15:12:48.453Z,0.90
2023-07-18T15:15:16.807Z,1.10
2023-07-18T15:17:45.938Z,1.08
2023-07-18T15:20:14.622Z,2.50
2023-07-18T15:22:42.362Z,1.38
2023-07-18T15:25:10.792Z,1.23
2023-07-18T15:27:40.904Z,1.00
2023-07-18T15:30:10.183Z,1.15
2023-07-18T15:32:38.326Z,1.20
2023-07-18T15:35:05.526Z,1.60
2023-07-18T15:37:33.025Z,1.15
2023-07-18T15:40:00.684Z,1.08
2023-07-18T15:42:28.197Z,1.13
2023-07-18T15:44:57.608Z,1.30
2023-07-18T15:47:25.089Z,1.08
2023-07-18T15:49:51.883Z,1.25
2023-07-18T15:52:19.515Z,0.90
2023-07-18T15:54:46.864Z,1.35
2023-07-18T15:57:13.693Z,1.00
2023-07-18T15:59:40.919Z,1.13
2023-07-18T16:02:08.120Z,1.33
2023-07-18T16:04:36.049Z,1.13
2023-07-18T16:07:03.534Z,0.75
2023-07-18T16:09:31.220Z,0.95
2023-07-18T16:11:59.815Z,1.35
2023-07-18T16:14:26.761Z,1.10
2023-07-18T16:16:55.042Z,1.23
2023-07-18T16:19:22.194Z,1.25
2023-07-18T16:21:50.167Z,1.25
2023-07-18T16:24:17.093Z,1.40
2023-07-18T16:26:43.824Z,0.98
2023-07-18T16:29:11.135Z,1.10
2023-07-18T16:31:38.397Z,0.80
2023-07-18T16:34:05.978Z,1.02
2023-07-18T16:36:33.401Z,1.05
2023-07-18T16:39:00.786Z,41.22
2023-07-18T16:41:27.756Z,4.90
2023-07-18T16:43:54.520Z,2.08
2023-07-18T16:46:23.491Z,2.13
2023-07-18T16:48:51.335Z,1.95
2023-07-18T16:51:18.698Z,1.55
2023-07-18T16:53:45.530Z,1.63
2023-07-18T16:56:13.613Z,1.63
2023-07-18T16:58:43.918Z,1.38
2023-07-18T17:01:15.417Z,1.20
2023-07-18T17:03:44.492Z,1.80
2023-07-18T17:06:12.726Z,1.85
2023-07-18T17:08:40.701Z,1.73
2023-07-18T17:11:08.421Z,1.45
2023-07-18T17:13:35.331Z,1.55
2023-07-18T17:16:02.976Z,1.27
2023-07-18T17:18:30.428Z,1.70
2023-07-18T17:20:58.166Z,1.75
2023-07-18T17:23:26.054Z,1.90
2023-07-18T17:25:53.747Z,2.20
2023-07-18T17:28:21.200Z,1.23
2023-07-18T17:30:48.118Z,1.30
2023-07-18T17:33:16.190Z,1.50
2023-07-18T17:35:45.065Z,1.60
2023-07-18T17:38:12.393Z,1.45
2023-07-18T17:40:39.784Z,1.10
2023-07-18T17:43:08.184Z,2.97
2023-07-18T17:45:36.199Z,7.93
2023-07-18T17:48:03.437Z,4.70
2023-07-18T17:50:31.191Z,4.72
2023-07-18T17:52:58.360Z,3.03
2023-07-18T17:55:25.242Z,2.20
2023-07-18T17:57:52.022Z,2.10
2023-07-18T18:00:21.095Z,1.27
2023-07-18T18:02:49.036Z,1.63
2023-07-18T18:05:36.950Z,1.52
2023-07-18T18:08:06.511Z,1.70
2023-07-18T18:10:34.226Z,2.85
2023-07-18T18:13:01.374Z,3.38
2023-07-18T18:15:29.094Z,4.53
2023-07-18T18:17:56.281Z,6.25
2023-07-18T18:20:23.900Z,7.32
2023-07-18T18:22:51.751Z,6.03
2023-07-18T18:25:19.581Z,5.28
2023-07-18T18:27:47.346Z,3.80
2023-07-18T18:30:15.379Z,3.35
2023-07-18T18:32:42.581Z,3.90
2023-07-18T18:35:10.385Z,3.60
2023-07-18T18:37:41.377Z,3.22
2023-07-18T18:40:09.069Z,2.95
2023-07-18T18:42:36.016Z,3.22
2023-07-18T18:45:03.736Z,2.17
2023-07-18T18:47:31.542Z,1.90
2023-07-18T18:49:59.458Z,2.17
2023-07-18T18:52:26.787Z,2.70
2023-07-18T18:55:08.697Z,2.25
2023-07-18T18:57:42.904Z,2.10
2023-07-18T19:00:11.894Z,2.03
2023-07-18T19:02:41.369Z,2.47
2023-07-18T19:05:09.386Z,2.60
2023-07-18T19:07:37.106Z,2.95
2023-07-18T19:10:04.818Z,2.60
2023-07-18T19:12:32.172Z,3.00
2023-07-18T19:14:59.018Z,3.10
2023-07-18T19:17:26.184Z,5.88
2023-07-18T19:19:54.476Z,18.08
2023-07-18T19:22:22.140Z,11.10
2023-07-18T19:24:49.515Z,5.20
2023-07-18T19:27:16.988Z,8.73
2023-07-18T19:29:44.877Z,6.75
2023-07-18T19:32:12.193Z,8.98
2023-07-18T19:34:44.715Z,6.53
2023-07-18T19:37:12.073Z,4.82
2023-07-18T19:39:38.985Z,4.70
2023-07-18T19:42:07.111Z,4.55
2023-07-18T19:44:40.310Z,5.15
2023-07-18T19:47:07.806Z,4.40
2023-07-18T19:49:35.203Z,4.80
2023-07-18T19:52:02.492Z,4.40
2023-07-18T19:54:29.784Z,4.03
2023-07-18T19:56:57.098Z,3.97
2023-07-18T19:59:24.740Z,4.03
2023-07-18T20:01:51.801Z,3.67
2023-07-18T20:04:23.101Z,3.80
2023-07-18T20:06:49.944Z,4.13
2023-07-18T20:09:16.795Z,3.55
2023-07-18T20:11:44.210Z,3.30
2023-07-18T20:14:11.826Z,3.67
2023-07-18T20:16:39.290Z,3.72
2023-07-18T20:19:06.707Z,3.35
2023-07-18T20:21:34.539Z,2.92
2023-07-18T20:24:02.097Z,3.58
2023-07-18T20:26:30.996Z,2.63
2023-07-18T20:28:59.829Z,3.00
2023-07-18T20:31:27.300Z,2.50
2023-07-18T20:33:54.123Z,3.13
2023-07-18T20:36:21.128Z,2.58
2023-07-18T20:38:48.359Z,2.90
2023-07-18T20:41:15.118Z,3.28
2023-07-18T20:43:42.500Z,2.55
2023-07-18T20:46:12.764Z,2.63
2023-07-18T20:48:40.548Z,2.75
2023-07-18T20:51:08.698Z,3.17
2023-07-18T20:53:36.205Z,2.70
2023-07-18T20:56:03.032Z,2.55
2023-07-18T20:58:31.680Z,2.38
2023-07-18T21:00:58.860Z,2.53
2023-07-18T21:03:29.218Z,2.85
2023-07-18T21:05:56.829Z,2.72
2023-07-18T21:08:23.778Z,2.65
2023-07-18T21:10:51.070Z,2.58
2023-07-18T21:13:18.082Z,2.20
2023-07-18T21:15:45.101Z,2.78
2023-07-18T21:18:12.021Z,2.75
2023-07-18T21:20:38.983Z,2.40
2023-07-18T21:23:07.068Z,3.25
2023-07-18T21:25:34.150Z,3.47
2023-07-18T21:28:01.184Z,3.95
2023-07-18T21:30:28.482Z,3.55
2023-07-18T21:32:55.468Z,2.65
2023-07-18T21:35:25.286Z,2.97
2023-07-18T21:37:53.131Z,2.70
2023-07-18T21:40:20.468Z,2.83
2023-07-18T21:42:49.262Z,2.28
2023-07-18T21:45:17.379Z,2.72
2023-07-18T21:47:44.522Z,2.50
2023-07-18T21:50:13.712Z,3.08
2023-07-18T21:52:40.574Z,2.22
2023-07-18T21:55:08.345Z,2.72
2023-07-18T21:57:35.256Z,2.67
2023-07-18T22:00:02.781Z,2.42
2023-07-18T22:02:34.396Z,2.50
2023-07-18T22:05:03.193Z,2.47
2023-07-18T22:07:31.908Z,2.90
2023-07-18T22:10:00.375Z,2.33
2023-07-18T22:12:27.730Z,1.98
2023-07-18T22:14:54.581Z,2.53
2023-07-18T22:17:22.566Z,2.15
2023-07-18T22:19:50.001Z,2.15
2023-07-18T22:22:16.753Z,2.05
2023-07-18T22:24:44.668Z,2.05
2023-07-18T22:27:11.432Z,2.30
2023-07-18T22:29:38.545Z,2.47
2023-07-18T22:32:07.324Z,2.35
2023-07-18T22:34:34.967Z,2.10
2023-07-18T22:37:01.993Z,2.10
2023-07-18T22:39:35.967Z,2.58
2023-07-18T22:42:18.734Z,1.77
2023-07-18T22:44:47.208Z,2.33
2023-07-18T22:47:14.994Z,2.05
2023-07-18T22:49:42.346Z,2.60
2023-07-18T22:52:19.848Z,2.08
2023-07-18T22:54:49.249Z,1.92
2023-07-18T22:57:17.410Z,2.03
2023-07-18T22:59:45.024Z,2.00
2023-07-18T23:02:12.243Z,2.15
2023-07-18T23:04:40.499Z,2.53
2023-07-18T23:07:08.127Z,2.75
2023-07-18T23:09:35.452Z,2.17
2023-07-18T23:12:03.912Z,2.33
2023-07-18T23:14:31.292Z,2.35
2023-07-18T23:16:58.914Z,2.28
2023-07-18T23:19:26.890Z,2.47
2023-07-18T23:21:53.689Z,3.05
2023-07-18T23:24:21.288Z,2.63
2023-07-18T23:26:48.789Z,2.45
2023-07-18T23:29:15.939Z,2.83
2023-07-18T23:31:43.259Z,2.15
2023-07-18T23:34:10.053Z,2.30
2023-07-18T23:36:37.482Z,2.28
2023-07-18T23:39:06.947Z,2.45
2023-07-18T23:41:34.262Z,2.35
2023-07-18T23:44:01.501Z,2.40
2023-07-18T23:46:29.056Z,1.88
2023-07-18T23:48:56.242Z,2.33
2023-07-18T23:51:23.924Z,2.08
2023-07-18T23:53:51.379Z,1.98
2023-07-18T23:56:18.709Z,2.05
2023-07-18T23:58:45.904Z,2.58
